createdAt,value
2023-01-07T00:01:24.384Z,11.20
2023-01-07T00:03:53.795Z,11.19
2023-01-07T00:06:23.237Z,11.20
2023-01-07T00:08:53.035Z,11.20
2023-01-07T00:11:26.807Z,11.20
2023-01-07T00:13:55.936Z,11.18
2023-01-07T00:16:27.624Z,11.19
2023-01-07T00:18:57.032Z,11.17
2023-01-07T00:21:26.239Z,11.17
2023-01-07T00:23:55.566Z,11.18
2023-01-07T00:26:24.917Z,11.17
2023-01-07T00:28:54.376Z,11.17
2023-01-07T00:31:24.445Z,11.17
2023-01-07T00:34:07.018Z,11.17
2023-01-07T00:36:41.835Z,11.14
2023-01-07T00:39:13.950Z,11.16
2023-01-07T00:42:02.564Z,11.13
2023-01-07T00:44:31.341Z,11.13
2023-01-07T00:46:59.412Z,11.15
2023-01-07T00:49:28.853Z,11.15
2023-01-07T00:51:56.988Z,11.13
2023-01-07T00:54:25.877Z,11.14
2023-01-07T00:56:53.738Z,11.14
2023-01-07T00:59:21.803Z,11.15
2023-01-07T01:01:50.037Z,11.14
2023-01-07T01:04:18.273Z,11.14
2023-01-07T01:06:47.529Z,11.15
2023-01-07T01:09:15.527Z,11.14
2023-01-07T01:11:43.393Z,11.13
2023-01-07T01:14:12.670Z,11.14
2023-01-07T01:16:40.550Z,11.14
2023-01-07T01:19:08.437Z,11.14
2023-01-07T01:21:36.532Z,11.14
2023-01-07T01:24:06.052Z,11.15
2023-01-07T01:26:33.962Z,11.13
2023-01-07T01:29:01.822Z,11.12
2023-01-07T01:31:32.487Z,11.13
2023-01-07T01:34:00.900Z,11.13
2023-01-07T01:36:28.836Z,11.12
2023-01-07T01:38:59.387Z,11.10
2023-01-07T01:41:33.130Z,11.12
2023-01-07T01:44:01.734Z,11.11
2023-01-07T01:46:36.140Z,11.13
2023-01-07T01:49:11.494Z,11.12
2023-01-07T01:51:42.722Z,11.11
2023-01-07T01:54:15.178Z,11.12
2023-01-07T01:56:54.031Z,11.12
2023-01-07T01:59:25.442Z,11.12
2023-01-07T02:01:55.515Z,11.09
2023-01-07T02:04:25.542Z,11.11
2023-01-07T02:06:59.875Z,11.12
2023-01-07T02:09:29.462Z,11.08
2023-01-07T02:12:09.175Z,11.11
2023-01-07T02:15:11.253Z,11.10
2023-01-07T02:17:53.515Z,11.08
2023-01-07T02:20:38.848Z,11.08
2023-01-07T02:24:03.813Z,11.02
2023-01-07T02:27:04.245Z,11.06
2023-01-07T02:30:08.086Z,11.04
2023-01-07T02:33:12.929Z,11.05
2023-01-07T02:35:56.845Z,11.06
2023-01-07T02:38:34.850Z,11.06
2023-01-07T02:41:11.552Z,11.07
2023-01-07T02:43:45.863Z,11.06
2023-01-07T02:46:22.851Z,11.06
2023-01-07T02:48:52.900Z,11.04
2023-01-07T02:51:21.674Z,11.04
2023-01-07T02:53:49.927Z,11.04
2023-01-07T02:56:28.384Z,11.06
2023-01-07T02:59:19.284Z,11.04
2023-01-07T03:02:14.028Z,11.04
2023-01-07T03:05:00.928Z,11.04
2023-01-07T03:07:42.388Z,11.06
2023-01-07T03:10:21.633Z,11.05
2023-01-07T03:12:55.792Z,11.05
2023-01-07T03:15:29.508Z,11.07
2023-01-07T03:18:02.789Z,11.08
2023-01-07T03:20:35.580Z,11.08
2023-01-07T03:23:07.598Z,11.06
2023-01-07T03:25:40.159Z,11.05
2023-01-07T03:28:11.492Z,11.05
2023-01-07T03:30:39.901Z,11.06
2023-01-07T03:33:13.422Z,11.08
2023-01-07T03:35:46.436Z,11.06
2023-01-07T03:38:14.413Z,10.77
2023-01-07T03:40:42.383Z,10.99
2023-01-07T03:43:12.967Z,11.03
2023-01-07T03:45:41.967Z,11.01
2023-01-07T03:48:09.970Z,10.98
2023-01-07T03:50:39.426Z,10.96
2023-01-07T03:53:09.589Z,10.96
2023-01-07T03:55:39.132Z,10.95
2023-01-07T03:58:07.016Z,10.93
2023-01-07T04:00:34.853Z,10.91
2023-01-07T04:03:12.650Z,10.88
2023-01-07T04:05:43.782Z,10.88
2023-01-07T04:08:14.119Z,10.86
2023-01-07T04:10:42.921Z,10.84
2023-01-07T04:13:12.547Z,10.82
2023-01-07T04:15:44.647Z,10.80
2023-01-07T04:18:13.152Z,10.79
2023-01-07T04:20:40.966Z,10.77
2023-01-07T04:23:08.856Z,10.76
2023-01-07T04:25:38.039Z,10.76
2023-01-07T04:28:09.206Z,10.71
2023-01-07T04:30:38.667Z,10.73
2023-01-07T04:33:06.610Z,10.70
2023-01-07T04:35:35.059Z,10.69
2023-01-07T04:38:03.625Z,10.68
2023-01-07T04:40:31.456Z,10.68
2023-01-07T04:43:02.168Z,10.68
2023-01-07T04:45:31.479Z,10.65
2023-01-07T04:48:01.262Z,10.65
2023-01-07T04:50:30.060Z,10.65
2023-01-07T04:52:58.489Z,10.63
2023-01-07T04:55:26.586Z,10.62
2023-01-07T04:57:54.555Z,10.62
2023-01-07T05:00:24.809Z,10.62
2023-01-07T05:02:54.595Z,10.59
2023-01-07T05:05:22.928Z,10.58
2023-01-07T05:07:50.908Z,10.58
2023-01-07T05:10:20.064Z,10.57
2023-01-07T05:12:48.265Z,10.55
2023-01-07T05:15:18.723Z,10.56
2023-01-07T05:17:48.319Z,10.57
2023-01-07T05:20:16.368Z,10.55
2023-01-07T05:22:44.260Z,10.54
2023-01-07T05:25:13.048Z,10.54
2023-01-07T05:27:40.847Z,10.55
2023-01-07T05:30:11.355Z,10.55
2023-01-07T05:32:39.254Z,10.54
2023-01-07T05:35:09.303Z,10.55
2023-01-07T05:37:37.482Z,10.55
2023-01-07T05:40:07.406Z,10.55
2023-01-07T05:42:35.555Z,10.55
2023-01-07T05:45:03.647Z,10.55
2023-01-07T05:47:31.432Z,10.55
2023-01-07T05:49:59.193Z,10.55
2023-01-07T05:52:28.521Z,10.57
2023-01-07T05:54:56.275Z,10.55
2023-01-07T05:57:24.165Z,10.56
2023-01-07T05:59:51.985Z,10.57
2023-01-07T06:02:19.799Z,10.58
2023-01-07T06:04:47.575Z,10.58
2023-01-07T06:07:15.560Z,10.59
2023-01-07T06:09:44.670Z,10.61
2023-01-07T06:12:12.513Z,10.60
2023-01-07T06:14:40.301Z,10.61
2023-01-07T06:17:08.111Z,10.62
2023-01-07T06:19:35.877Z,10.62
2023-01-07T06:22:03.720Z,10.64
2023-01-07T06:24:31.503Z,10.63
2023-01-07T06:27:00.677Z,10.65
2023-01-07T06:29:28.494Z,10.65
2023-01-07T06:31:56.345Z,10.65
2023-01-07T06:34:24.261Z,10.66
2023-01-07T06:36:52.079Z,10.66
2023-01-07T06:39:19.843Z,10.67
2023-01-07T06:41:47.700Z,10.68
2023-01-07T06:44:16.874Z,10.70
2023-01-07T06:46:44.769Z,10.69
2023-01-07T06:49:12.678Z,10.70
2023-01-07T06:51:40.573Z,10.70
2023-01-07T06:54:08.367Z,10.71
2023-01-07T06:56:36.190Z,10.71
2023-01-07T06:59:03.979Z,10.72
2023-01-07T07:01:33.402Z,10.73
2023-01-07T07:04:01.226Z,10.73
2023-01-07T07:06:29.068Z,10.72
2023-01-07T07:08:56.852Z,10.73
2023-01-07T07:11:24.738Z,10.73
2023-01-07T07:13:52.751Z,10.74
2023-01-07T07:16:22.460Z,10.74
2023-01-07T07:18:51.699Z,10.76
2023-01-07T07:21:19.522Z,10.75
2023-01-07T07:23:47.322Z,10.75
2023-01-07T07:26:15.273Z,10.76
2023-01-07T07:28:43.303Z,10.77
2023-01-07T07:31:11.383Z,10.77
2023-01-07T07:33:39.289Z,10.78
2023-01-07T07:36:09.175Z,10.79
2023-01-07T07:38:36.963Z,10.76
2023-01-07T07:41:04.835Z,10.76
2023-01-07T07:43:32.750Z,10.77
2023-01-07T07:46:00.600Z,10.76
2023-01-07T07:48:28.597Z,10.76
2023-01-07T07:50:56.372Z,10.75
2023-01-07T07:53:25.686Z,10.77
2023-01-07T07:55:54.087Z,10.75
2023-01-07T07:58:22.129Z,10.74
2023-01-07T08:00:49.977Z,10.74
2023-01-07T08:03:17.814Z,10.73
2023-01-07T08:05:46.465Z,10.73
2023-01-07T08:08:15.833Z,10.74
2023-01-07T08:10:45.396Z,10.75
2023-01-07T08:13:13.208Z,10.73
2023-01-07T08:15:41.216Z,10.74
2023-01-07T08:18:10.961Z,10.74
2023-01-07T08:20:39.558Z,10.74
2023-01-07T08:23:08.959Z,10.74
2023-01-07T08:25:37.060Z,10.74
2023-01-07T08:28:06.593Z,10.75
2023-01-07T08:30:34.748Z,10.74
2023-01-07T08:33:05.278Z,10.76
2023-01-07T08:35:33.495Z,10.76
2023-01-07T08:38:05.835Z,10.78
2023-01-07T08:40:34.089Z,10.74
2023-01-07T08:43:02.725Z,10.76
2023-01-07T08:45:33.044Z,10.79
2023-01-07T08:48:01.065Z,10.76
2023-01-07T08:50:31.270Z,10.78
2023-01-07T08:52:59.691Z,10.77
2023-01-07T08:55:27.524Z,10.77
2023-01-07T08:57:55.586Z,10.76
2023-01-07T09:00:23.862Z,10.77
2023-01-07T09:02:53.220Z,10.77
2023-01-07T09:05:21.130Z,10.76
2023-01-07T09:07:53.174Z,10.77
2023-01-07T09:10:21.559Z,10.73
2023-01-07T09:12:49.701Z,10.75
2023-01-07T09:15:18.234Z,10.75
2023-01-07T09:17:46.109Z,10.74
2023-01-07T09:20:15.478Z,10.76
2023-01-07T09:22:43.590Z,10.74
2023-01-07T09:25:11.598Z,10.76
2023-01-07T09:27:39.773Z,10.75
2023-01-07T09:30:09.561Z,10.77
2023-01-07T09:32:37.481Z,10.76
2023-01-07T09:35:05.719Z,10.77
2023-01-07T09:37:34.920Z,10.79
2023-01-07T09:40:02.856Z,10.78
2023-01-07T09:42:38.832Z,10.80
2023-01-07T09:45:16.798Z,10.81
2023-01-07T09:47:48.979Z,10.82
2023-01-07T09:50:25.920Z,10.84
2023-01-07T09:52:58.869Z,10.87
2023-01-07T09:55:29.548Z,10.65
2023-01-07T09:57:57.390Z,10.93
2023-01-07T10:00:26.193Z,11.05
2023-01-07T10:03:10.332Z,11.15
2023-01-07T10:05:47.418Z,11.23
2023-01-07T10:08:29.370Z,11.32
2023-01-07T10:11:02.149Z,11.12
2023-01-07T10:13:50.658Z,11.49
2023-01-07T10:16:24.880Z,11.63
2023-01-07T10:19:03.651Z,11.76
2023-01-07T10:21:41.403Z,11.86
2023-01-07T10:24:21.768Z,11.94
2023-01-07T10:26:53.456Z,12.02
2023-01-07T10:29:28.375Z,12.10
2023-01-07T10:31:59.464Z,12.16
2023-01-07T10:34:35.571Z,12.22
2023-01-07T10:37:07.730Z,12.30
2023-01-07T10:39:52.402Z,12.34
2023-01-07T10:42:26.514Z,12.40
2023-01-07T10:45:24.396Z,12.41
2023-01-07T10:48:12.889Z,12.48
2023-01-07T10:50:53.566Z,12.52
2023-01-07T10:53:33.155Z,12.54
2023-01-07T10:56:13.920Z,12.57
2023-01-07T10:58:44.409Z,12.58
2023-01-07T11:01:19.666Z,12.63
2023-01-07T11:03:51.475Z,12.64
2023-01-07T11:06:27.384Z,12.65
2023-01-07T11:08:55.351Z,12.65
2023-01-07T11:11:25.480Z,12.67
2023-01-07T11:13:59.333Z,12.67
2023-01-07T11:16:30.432Z,12.66
2023-01-07T11:19:04.904Z,12.64
2023-01-07T11:21:42.541Z,12.62
2023-01-07T11:24:33.195Z,12.58
2023-01-07T11:27:05.241Z,12.56
2023-01-07T11:29:38.627Z,12.52
2023-01-07T11:32:11.517Z,12.48
2023-01-07T11:34:52.641Z,12.47
2023-01-07T11:37:33.253Z,12.43
2023-01-07T11:40:03.224Z,12.38
2023-01-07T11:42:41.590Z,12.34
2023-01-07T11:45:14.999Z,12.31
2023-01-07T11:47:48.696Z,12.29
2023-01-07T11:50:34.655Z,12.25
2023-01-07T11:53:12.083Z,12.21
2023-01-07T11:55:40.718Z,12.17
2023-01-07T11:58:29.564Z,12.18
2023-01-07T12:01:16.528Z,12.15
2023-01-07T12:03:46.090Z,12.11
2023-01-07T12:06:21.623Z,12.11
2023-01-07T12:08:56.261Z,12.09
2023-01-07T12:11:33.132Z,12.07
2023-01-07T12:14:08.700Z,12.04
2023-01-07T12:16:37.282Z,12.01
2023-01-07T12:19:19.215Z,12.02
2023-01-07T12:21:58.301Z,11.99
2023-01-07T12:24:52.828Z,11.97
2023-01-07T12:27:32.020Z,11.99
2023-01-07T12:30:21.822Z,12.03
2023-01-07T12:33:02.806Z,12.04
2023-01-07T12:35:34.994Z,12.08
2023-01-07T12:38:10.248Z,12.08
2023-01-07T12:40:41.898Z,12.14
2023-01-07T12:43:16.984Z,12.20
2023-01-07T12:45:50.962Z,12.24
2023-01-07T12:48:25.169Z,12.29
2023-01-07T12:50:56.126Z,12.33
2023-01-07T12:53:32.829Z,12.38
2023-01-07T12:56:06.051Z,12.40
2023-01-07T12:58:45.805Z,12.46
2023-01-07T13:01:23.837Z,12.48
2023-01-07T13:04:07.925Z,12.51
2023-01-07T13:06:44.547Z,12.53
2023-01-07T13:09:23.133Z,12.55
2023-01-07T13:12:42.330Z,12.55
2023-01-07T13:15:05.073Z,12.53
2023-01-07T13:17:34.283Z,12.53
2023-01-07T13:20:04.676Z,12.50
2023-01-07T13:22:37.910Z,12.49
2023-01-07T13:25:21.010Z,12.48
2023-01-07T13:28:02.863Z,12.17
2023-01-07T13:30:43.568Z,12.39
2023-01-07T13:33:21.501Z,12.39
2023-01-07T13:36:06.614Z,12.37
2023-01-07T13:39:00.170Z,12.32
2023-01-07T13:41:42.270Z,12.30
2023-01-07T13:44:28.897Z,12.26
2023-01-07T13:46:57.499Z,12.24
2023-01-07T13:49:30.006Z,12.24
2023-01-07T13:52:12.888Z,12.19
2023-01-07T13:54:58.131Z,12.16
2023-01-07T13:57:43.457Z,12.15
2023-01-07T14:00:48.183Z,12.11
2023-01-07T14:03:35.597Z,12.10
2023-01-07T14:06:43.041Z,12.07
2023-01-07T14:09:40.453Z,12.02
2023-01-07T14:12:46.683Z,12.02
2023-01-07T14:15:53.522Z,11.99
2023-01-07T14:18:53.071Z,11.95
2023-01-07T14:21:30.373Z,11.97
2023-01-07T14:24:18.625Z,11.97
2023-01-07T14:26:57.743Z,11.95
2023-01-07T14:29:40.729Z,11.94
2023-01-07T14:32:23.961Z,11.64
2023-01-07T14:34:59.505Z,11.87
2023-01-07T14:37:33.498Z,11.90
2023-01-07T14:40:01.955Z,11.87
2023-01-07T14:42:47.738Z,11.86
2023-01-07T14:45:54.279Z,11.84
2023-01-07T14:48:39.950Z,11.81
2023-01-07T14:51:30.097Z,11.80
2023-01-07T14:54:48.161Z,11.72
2023-01-07T14:57:31.480Z,11.77
2023-01-07T15:00:32.654Z,11.77
2023-01-07T15:03:21.650Z,11.74
2023-01-07T15:06:08.255Z,11.74
2023-01-07T15:09:04.092Z,11.72
2023-01-07T15:11:51.083Z,11.69
2023-01-07T15:14:45.884Z,11.69
2023-01-07T15:17:16.282Z,11.65
2023-01-07T15:19:44.576Z,11.64
2023-01-07T15:22:41.455Z,11.65
2023-01-07T15:25:22.866Z,11.63
2023-01-07T15:27:58.818Z,11.60
2023-01-07T15:30:41.035Z,11.60
2023-01-07T15:33:37.292Z,11.54
2023-01-07T15:36:09.994Z,11.53
2023-01-07T15:38:42.646Z,11.52
2023-01-07T15:41:25.481Z,11.50
2023-01-07T15:43:54.229Z,11.45
2023-01-07T15:46:23.748Z,11.46
2023-01-07T15:49:16.102Z,11.43
2023-01-07T15:51:45.601Z,11.39
2023-01-07T15:54:34.852Z,11.38
2023-01-07T15:57:11.335Z,11.36
2023-01-07T15:59:43.882Z,11.34
2023-01-07T16:02:22.136Z,11.31
2023-01-07T16:04:52.441Z,11.28
2023-01-07T16:07:24.743Z,11.27
2023-01-07T16:09:53.440Z,11.22
2023-01-07T16:12:32.602Z,11.25
2023-01-07T16:15:01.757Z,11.20
2023-01-07T16:17:30.301Z,11.19
2023-01-07T16:20:12.281Z,11.20
2023-01-07T16:22:42.642Z,11.17
2023-01-07T16:25:14.759Z,11.16
2023-01-07T16:27:44.223Z,11.13
2023-01-07T16:30:15.748Z,11.14
2023-01-07T16:32:45.315Z,11.12
2023-01-07T16:35:20.332Z,11.11
2023-01-07T16:37:50.074Z,11.09
2023-01-07T16:40:23.121Z,11.08
2023-01-07T16:42:52.490Z,11.06
2023-01-07T16:45:27.114Z,11.06
2023-01-07T16:48:03.869Z,11.06
2023-01-07T16:50:38.353Z,11.04
2023-01-07T16:53:22.638Z,11.02
2023-01-07T16:55:52.721Z,10.99
2023-01-07T16:58:35.241Z,11.01
2023-01-07T17:01:05.937Z,10.95
2023-01-07T17:03:45.499Z,10.97
2023-01-07T17:06:13.791Z,10.94
2023-01-07T17:08:49.120Z,10.96
2023-01-07T17:11:22.681Z,10.95
2023-01-07T17:13:52.118Z,10.92
2023-01-07T17:16:31.548Z,10.92
2023-01-07T17:19:20.727Z,10.89
2023-01-07T17:21:48.929Z,10.85
2023-01-07T17:24:44.610Z,10.89
2023-01-07T17:27:25.317Z,10.87
2023-01-07T17:29:54.658Z,10.85
2023-01-07T17:32:24.143Z,10.84
2023-01-07T17:34:52.145Z,10.82
2023-01-07T17:37:20.087Z,10.82
2023-01-07T17:39:49.372Z,10.79
2023-01-07T17:42:41.588Z,10.81
2023-01-07T17:45:16.291Z,10.79
2023-01-07T17:47:44.425Z,10.76
2023-01-07T17:50:14.524Z,10.76
2023-01-07T17:52:45.440Z,10.73
2023-01-07T17:55:18.059Z,10.74
2023-01-07T17:57:46.228Z,10.69
2023-01-07T18:00:18.228Z,10.72
2023-01-07T18:02:47.005Z,10.68
2023-01-07T18:05:20.245Z,10.71
2023-01-07T18:07:48.416Z,10.69
2023-01-07T18:10:17.842Z,10.69
2023-01-07T18:12:45.610Z,10.68
2023-01-07T18:15:24.099Z,10.69
2023-01-07T18:17:52.408Z,10.65
2023-01-07T18:20:21.844Z,10.66
2023-01-07T18:22:50.387Z,10.63
2023-01-07T18:25:20.239Z,10.65
2023-01-07T18:27:49.021Z,10.63
2023-01-07T18:30:19.075Z,10.64
2023-01-07T18:32:48.276Z,10.63
2023-01-07T18:35:19.002Z,10.62
2023-01-07T18:37:48.989Z,10.64
2023-01-07T18:40:16.851Z,10.63
2023-01-07T18:42:44.980Z,10.63
2023-01-07T18:45:13.813Z,10.63
2023-01-07T18:47:42.933Z,10.63
2023-01-07T18:50:12.713Z,10.65
2023-01-07T18:52:41.200Z,10.64
2023-01-07T18:55:10.915Z,10.65
2023-01-07T18:57:38.816Z,10.66
2023-01-07T19:00:09.475Z,10.68
2023-01-07T19:02:37.352Z,10.67
2023-01-07T19:05:05.682Z,10.69
2023-01-07T19:07:35.221Z,10.71
2023-01-07T19:10:03.194Z,10.70
2023-01-07T19:12:31.007Z,10.71
2023-01-07T19:14:58.811Z,10.72
2023-01-07T19:17:26.762Z,10.74
2023-01-07T19:19:54.620Z,10.74
2023-01-07T19:22:22.452Z,10.75
2023-01-07T19:24:53.838Z,10.77
2023-01-07T19:27:21.635Z,10.76
2023-01-07T19:29:49.454Z,10.77
2023-01-07T19:32:17.365Z,10.78
2023-01-07T19:34:45.245Z,10.79
2023-01-07T19:37:13.062Z,10.79
2023-01-07T19:39:41.127Z,10.79
2023-01-07T19:42:12.750Z,10.82
2023-01-07T19:44:41.623Z,10.80
2023-01-07T19:47:09.528Z,10.81
2023-01-07T19:49:37.599Z,10.81
2023-01-07T19:52:05.427Z,10.82
2023-01-07T19:54:34.273Z,10.82
2023-01-07T19:57:02.070Z,10.83
2023-01-07T19:59:33.298Z,10.84
2023-01-07T20:02:01.432Z,10.83
2023-01-07T20:04:29.874Z,10.84
2023-01-07T20:06:58.688Z,10.84
2023-01-07T20:09:27.372Z,10.85
2023-01-07T20:11:55.916Z,10.87
2023-01-07T20:14:24.567Z,10.87
2023-01-07T20:16:53.978Z,10.89
2023-01-07T20:19:23.318Z,10.87
2023-01-07T20:21:51.247Z,10.88
2023-01-07T20:24:19.103Z,10.89
2023-01-07T20:26:47.693Z,10.89
2023-01-07T20:29:15.522Z,10.89
2023-01-07T20:31:44.297Z,10.89
2023-01-07T20:34:13.724Z,10.90
2023-01-07T20:36:41.652Z,10.89
2023-01-07T20:39:09.456Z,10.88
2023-01-07T20:41:38.647Z,10.88
2023-01-07T20:44:08.583Z,10.89
2023-01-07T20:46:38.949Z,10.86
2023-01-07T20:49:06.741Z,10.86
2023-01-07T20:51:35.883Z,10.86
2023-01-07T20:54:03.956Z,10.83
2023-01-07T20:56:32.878Z,10.80
2023-01-07T20:59:01.619Z,10.79
2023-01-07T21:01:29.784Z,10.77
2023-01-07T21:03:58.005Z,10.75
2023-01-07T21:06:26.126Z,10.74
2023-01-07T21:08:55.357Z,10.74
2023-01-07T21:11:24.632Z,10.73
2023-01-07T21:13:55.924Z,10.71
2023-01-07T21:16:24.507Z,10.69
2023-01-07T21:18:52.427Z,10.68
2023-01-07T21:21:24.010Z,10.68
2023-01-07T21:23:52.611Z,10.65
2023-01-07T21:26:22.579Z,10.67
2023-01-07T21:28:55.666Z,10.66
2023-01-07T21:31:24.546Z,10.64
2023-01-07T21:33:55.061Z,10.65
2023-01-07T21:36:23.579Z,10.63
2023-01-07T21:38:54.727Z,10.64
2023-01-07T21:41:25.530Z,10.63
2023-01-07T21:43:53.632Z,10.62
2023-01-07T21:46:23.020Z,10.62
2023-01-07T21:48:51.818Z,10.62
2023-01-07T21:51:22.889Z,10.63
2023-01-07T21:53:52.047Z,10.63
2023-01-07T21:56:20.531Z,10.63
2023-01-07T21:58:50.015Z,10.64
2023-01-07T22:01:19.818Z,10.63
2023-01-07T22:03:49.327Z,10.63
2023-01-07T22:06:20.769Z,10.64
2023-01-07T22:08:49.092Z,10.61
2023-01-07T22:11:18.397Z,10.62
2023-01-07T22:13:52.089Z,10.63
2023-01-07T22:16:20.711Z,10.61
2023-01-07T22:18:49.073Z,10.60
2023-01-07T22:21:18.112Z,10.62
2023-01-07T22:23:46.881Z,10.62
2023-01-07T22:26:16.700Z,10.64
2023-01-07T22:28:46.930Z,10.62
2023-01-07T22:31:19.646Z,10.62
2023-01-07T22:33:49.170Z,10.59
2023-01-07T22:36:21.299Z,10.63
2023-01-07T22:38:50.173Z,10.60
2023-01-07T22:41:19.020Z,10.62
2023-01-07T22:43:47.001Z,10.61
2023-01-07T22:46:21.007Z,10.64
2023-01-07T22:48:49.725Z,10.62
2023-01-07T22:51:21.603Z,10.64
2023-01-07T22:53:52.189Z,10.62
2023-01-07T22:56:20.341Z,10.63
2023-01-07T22:58:48.469Z,10.63
2023-01-07T23:01:18.593Z,10.66
2023-01-07T23:03:46.801Z,10.65
2023-01-07T23:06:16.419Z,10.66
2023-01-07T23:08:44.765Z,10.65
2023-01-07T23:11:33.022Z,10.65
2023-01-07T23:14:00.893Z,10.63
2023-01-07T23:16:30.156Z,10.66
2023-01-07T23:18:58.023Z,10.65
2023-01-07T23:21:25.925Z,10.65
2023-01-07T23:23:53.840Z,10.65
2023-01-07T23:26:21.723Z,10.64
2023-01-07T23:28:49.553Z,10.65
2023-01-07T23:31:17.395Z,10.65
2023-01-07T23:33:47.207Z,10.67
2023-01-07T23:36:15.118Z,10.66
2023-01-07T23:38:42.903Z,10.66
2023-01-07T23:41:12.286Z,10.67
2023-01-07T23:43:40.166Z,10.67
2023-01-07T23:46:09.125Z,10.68
2023-01-07T23:48:38.556Z,10.68
2023-01-07T23:51:09.863Z,10.69
2023-01-07T23:53:38.233Z,10.67
2023-01-07T23:56:07.561Z,10.69
2023-01-07T23:58:36.868Z,10.68
